Ayr, ND

1:37 AM CST on February 24, 2017 (GMT -0600)
Home of the Absaraka Crows | | Change Station
Active Advisory: Flood Warning

Elev 1066 ft 46.98 °N, 97.39 °W | Updated 5 seconds ago

Clear
Clear
19.8 °F
Feels Like 12 °F
N
5.4
Wind Variable Wind from NNE
Gusts 11.4 mph

Today
High -- | Low -- °F
--% Chance of Precip.
Yesterday
High -- | Low -- °F
Precip. -- in
Pressure 30.12 in
Visibility 10.0 miles
Clouds Overcast 1200 ft
Windchill 12 °F
Dew Point 16 °F
Humidity 85%
Rainfall 0.00 in
Snow Depth Not available.
7:18 AM 6:08 PM
Waning Crescent, 6% visible
METAR KBAC 240735Z AUTO 03009KT 10SM OVC012 M07/M07 A3012 RMK AO2
Pressure 30.12 in
Visibility 10.0 miles
Clouds Overcast 1200 ft
Windchill 12 °F
Dew Point 16 °F
Humidity 85%
Rainfall 0.00 in
Snow Depth Not available.
7:18 AM 6:08 PM
Waning Crescent, 6% visible
METAR KBAC 240735Z AUTO 03009KT 10SM OVC012 M07/M07 A3012 RMK AO2

Get Your Daily Forecast Email!

Thanks for signing up!

Be on the lookout for a verification email in your inbox.

You'll start receiving the daily forecast at 8 AM.

×

10-Day Weather Forecast

Almanac

Astronomy

Feb. 24, 2017 Rise Set
Actual Time
Civil Twilight
Nautical Twilight
Astronomical Twilight
Moon
Length of Visible Light
Length of Day
Tomorrow will be .
, % of the Moon is Illuminated

Today's Extremes

State Highs State Lows

Community

WunderPhotos

Upload Photos

1,962,540 photos uploaded!

WunderBlog® & News

Nearby

Air Quality

  Air Quality AQ Index Pollutant
Not available.

Snow Depth

Station Depth Elevation

Earthquake Activity

City Distance Mag. Time & Date
Minimum magnitude displayed is 2.5.

Coastal Water Temperatures

Place Temperature

Stations

Nearby Weather Stations

Station Location Temp. Windchill Dew Point Humidity Wind Precip. Elev Updated Type
                   

Watches & Warnings

Flood Warning
Issued: 9:38 PM CST Feb. 23, 2017 – National Weather Service

The Flood Warning continues for...
* ... Fargo... on the Red River.
* Until Thursday March 02... or until the warning is cancelled.
* At 9:15 PM Thursday the stage was 21.8 feet.
* Minor flooding is occurring and during the next 7 days... minor
flooding is forecast.
* Minor flood stage is 18.0 feet.
* Forecast... the river will rise to a crest near 21.9 feet sometime
early Friday morning. The river will fall below flood stage Tuesday
evening.
* The river is forecast to crest at 21.9 on early Friday morning
during this 7-day period.
* Impact statement(s) - at 22.0 feet, Fargo... North Broadway bridge is
closed.


Daily 7pm CDT/6pm CST forecast stage in feet:

date Fri Sat sun Mon Tue Wed Thu
(month/day) 02/24 02/25 02/26 02/27 02/28 03/01 03/02
Fargo 21.9 21.4 20.4 19.2 18.0 17.4 17.0
lat... Lon 4715 9673 4724 9683 4724 9694 4676 9689 4677 9671